sensor_id;sensor_type;location;lat;lon;timestamp;temperature;humidity
51486;DHT22;37565;51.352;6.412;2022-09-03T00:00:29;24.10;75.70
51486;DHT22;37565;51.352;6.412;2022-09-03T00:03:02;24.10;75.50
51486;DHT22;37565;51.352;6.412;2022-09-03T00:05:36;24.10;75.30
51486;DHT22;37565;51.352;6.412;2022-09-03T00:08:11;24.10;75.20
51486;DHT22;37565;51.352;6.412;2022-09-03T00:10:45;24.10;75.30
51486;DHT22;37565;51.352;6.412;2022-09-03T00:13:19;24.00;75.00
51486;DHT22;37565;51.352;6.412;2022-09-03T00:15:49;24.00;75.00
51486;DHT22;37565;51.352;6.412;2022-09-03T00:18:20;24.00;74.80
51486;DHT22;37565;51.352;6.412;2022-09-03T00:20:53;24.00;74.70
51486;DHT22;37565;51.352;6.412;2022-09-03T00:23:25;24.00;74.40
51486;DHT22;37565;51.352;6.412;2022-09-03T00:25:58;24.00;74.60
51486;DHT22;37565;51.352;6.412;2022-09-03T00:28:41;24.00;74.30
51486;DHT22;37565;51.352;6.412;2022-09-03T00:31:15;23.90;74.30
51486;DHT22;37565;51.352;6.412;2022-09-03T00:33:46;24.00;74.20
51486;DHT22;37565;51.352;6.412;2022-09-03T00:36:19;24.00;73.40
51486;DHT22;37565;51.352;6.412;2022-09-03T00:38:47;24.00;73.40
51486;DHT22;37565;51.352;6.412;2022-09-03T00:41:24;23.90;73.20
51486;DHT22;37565;51.352;6.412;2022-09-03T00:44:13;23.90;73.20
51486;DHT22;37565;51.352;6.412;2022-09-03T00:46:47;23.90;73.30
51486;DHT22;37565;51.352;6.412;2022-09-03T00:49:28;24.00;72.70
51486;DHT22;37565;51.352;6.412;2022-09-03T00:52:07;23.90;72.80
51486;DHT22;37565;51.352;6.412;2022-09-03T00:54:47;23.90;73.00
51486;DHT22;37565;51.352;6.412;2022-09-03T00:57:33;23.90;73.00
51486;DHT22;37565;51.352;6.412;2022-09-03T01:00:08;23.90;73.10
51486;DHT22;37565;51.352;6.412;2022-09-03T01:02:52;23.90;73.20
51486;DHT22;37565;51.352;6.412;2022-09-03T01:05:41;23.90;73.30
51486;DHT22;37565;51.352;6.412;2022-09-03T01:08:27;23.90;73.30
51486;DHT22;37565;51.352;6.412;2022-09-03T01:11:03;23.90;73.50
51486;DHT22;37565;51.352;6.412;2022-09-03T01:13:41;23.90;73.40
51486;DHT22;37565;51.352;6.412;2022-09-03T01:16:20;23.90;73.30
51486;DHT22;37565;51.352;6.412;2022-09-03T01:18:58;23.90;73.60
51486;DHT22;37565;51.352;6.412;2022-09-03T01:21:43;23.90;73.30
51486;DHT22;37565;51.352;6.412;2022-09-03T01:24:39;23.90;73.50
51486;DHT22;37565;51.352;6.412;2022-09-03T01:27:20;23.90;73.70
51486;DHT22;37565;51.352;6.412;2022-09-03T01:29:58;23.90;73.60
51486;DHT22;37565;51.352;6.412;2022-09-03T01:32:40;23.90;73.50
51486;DHT22;37565;51.352;6.412;2022-09-03T01:35:19;23.90;73.30
51486;DHT22;37565;51.352;6.412;2022-09-03T01:38:03;23.90;74.00
51486;DHT22;37565;51.352;6.412;2022-09-03T01:40:40;23.90;73.70
51486;DHT22;37565;51.352;6.412;2022-09-03T01:43:21;23.90;73.80
51486;DHT22;37565;51.352;6.412;2022-09-03T01:45:55;23.90;72.60
51486;DHT22;37565;51.352;6.412;2022-09-03T01:48:34;23.90;73.70
51486;DHT22;37565;51.352;6.412;2022-09-03T01:51:18;23.80;74.20
51486;DHT22;37565;51.352;6.412;2022-09-03T01:57:06;23.90;73.70
51486;DHT22;37565;51.352;6.412;2022-09-03T02:00:00;23.90;73.40
51486;DHT22;37565;51.352;6.412;2022-09-03T02:02:32;23.80;73.40
51486;DHT22;37565;51.352;6.412;2022-09-03T02:05:04;23.80;73.70
51486;DHT22;37565;51.352;6.412;2022-09-03T02:07:37;23.90;74.00
51486;DHT22;37565;51.352;6.412;2022-09-03T02:10:07;23.80;74.00
51486;DHT22;37565;51.352;6.412;2022-09-03T02:12:37;23.80;73.20
51486;DHT22;37565;51.352;6.412;2022-09-03T02:15:11;23.80;73.60
51486;DHT22;37565;51.352;6.412;2022-09-03T02:17:43;23.80;73.50
51486;DHT22;37565;51.352;6.412;2022-09-03T02:20:17;23.80;73.30
51486;DHT22;37565;51.352;6.412;2022-09-03T02:22:47;23.80;73.60
51486;DHT22;37565;51.352;6.412;2022-09-03T02:25:16;23.80;73.80
51486;DHT22;37565;51.352;6.412;2022-09-03T02:27:45;23.80;73.50
51486;DHT22;37565;51.352;6.412;2022-09-03T02:30:15;23.80;73.60
51486;DHT22;37565;51.352;6.412;2022-09-03T02:32:45;23.80;73.30
51486;DHT22;37565;51.352;6.412;2022-09-03T02:35:13;23.80;74.20
51486;DHT22;37565;51.352;6.412;2022-09-03T02:37:41;23.80;73.40
51486;DHT22;37565;51.352;6.412;2022-09-03T02:40:09;23.80;73.50
51486;DHT22;37565;51.352;6.412;2022-09-03T02:42:39;23.80;72.60
51486;DHT22;37565;51.352;6.412;2022-09-03T02:45:15;23.80;72.80
51486;DHT22;37565;51.352;6.412;2022-09-03T02:47:50;23.80;73.10
51486;DHT22;37565;51.352;6.412;2022-09-03T02:50:19;23.80;73.50
51486;DHT22;37565;51.352;6.412;2022-09-03T02:52:47;23.80;73.60
51486;DHT22;37565;51.352;6.412;2022-09-03T02:55:15;23.80;73.90
51486;DHT22;37565;51.352;6.412;2022-09-03T02:57:48;23.80;73.60
51486;DHT22;37565;51.352;6.412;2022-09-03T03:00:16;23.80;74.00
51486;DHT22;37565;51.352;6.412;2022-09-03T03:02:45;23.80;74.10
51486;DHT22;37565;51.352;6.412;2022-09-03T03:05:23;23.80;74.10
51486;DHT22;37565;51.352;6.412;2022-09-03T03:07:53;23.80;73.60
51486;DHT22;37565;51.352;6.412;2022-09-03T03:10:24;23.80;73.70
51486;DHT22;37565;51.352;6.412;2022-09-03T03:12:52;23.80;73.10
51486;DHT22;37565;51.352;6.412;2022-09-03T03:15:20;23.80;75.20
51486;DHT22;37565;51.352;6.412;2022-09-03T03:17:48;23.80;73.20
51486;DHT22;37565;51.352;6.412;2022-09-03T03:20:17;23.80;73.40
51486;DHT22;37565;51.352;6.412;2022-09-03T03:22:45;23.80;75.10
51486;DHT22;37565;51.352;6.412;2022-09-03T03:25:14;23.80;73.20
51486;DHT22;37565;51.352;6.412;2022-09-03T03:27:43;23.80;74.10
51486;DHT22;37565;51.352;6.412;2022-09-03T03:30:12;23.70;74.50
51486;DHT22;37565;51.352;6.412;2022-09-03T03:32:42;23.70;73.50
51486;DHT22;37565;51.352;6.412;2022-09-03T03:35:10;23.70;73.30
51486;DHT22;37565;51.352;6.412;2022-09-03T03:37:42;23.70;72.80
51486;DHT22;37565;51.352;6.412;2022-09-03T03:40:10;23.80;74.30
51486;DHT22;37565;51.352;6.412;2022-09-03T03:42:39;23.70;74.70
51486;DHT22;37565;51.352;6.412;2022-09-03T03:45:07;23.70;74.40
51486;DHT22;37565;51.352;6.412;2022-09-03T03:47:36;23.70;74.50
51486;DHT22;37565;51.352;6.412;2022-09-03T03:50:05;23.70;75.30
51486;DHT22;37565;51.352;6.412;2022-09-03T03:52:33;23.70;74.80
51486;DHT22;37565;51.352;6.412;2022-09-03T03:55:03;23.70;75.00
51486;DHT22;37565;51.352;6.412;2022-09-03T03:57:32;23.70;74.10
51486;DHT22;37565;51.352;6.412;2022-09-03T04:00:00;23.70;75.00
51486;DHT22;37565;51.352;6.412;2022-09-03T04:02:28;23.70;74.40
51486;DHT22;37565;51.352;6.412;2022-09-03T04:04:56;23.70;74.90
51486;DHT22;37565;51.352;6.412;2022-09-03T04:07:24;23.70;74.50
51486;DHT22;37565;51.352;6.412;2022-09-03T04:09:54;23.70;75.00
51486;DHT22;37565;51.352;6.412;2022-09-03T04:12:23;23.60;75.90
51486;DHT22;37565;51.352;6.412;2022-09-03T04:14:53;23.70;75.30
51486;DHT22;37565;51.352;6.412;2022-09-03T04:17:21;23.60;74.80
51486;DHT22;37565;51.352;6.412;2022-09-03T04:19:51;23.60;75.30
51486;DHT22;37565;51.352;6.412;2022-09-03T04:22:19;23.60;75.70
51486;DHT22;37565;51.352;6.412;2022-09-03T04:24:47;23.60;75.40
51486;DHT22;37565;51.352;6.412;2022-09-03T04:27:15;23.60;76.20
51486;DHT22;37565;51.352;6.412;2022-09-03T04:29:44;23.60;77.10
51486;DHT22;37565;51.352;6.412;2022-09-03T04:32:12;23.60;76.40
51486;DHT22;37565;51.352;6.412;2022-09-03T04:35:00;23.60;75.60
51486;DHT22;37565;51.352;6.412;2022-09-03T04:37:31;23.60;76.30
51486;DHT22;37565;51.352;6.412;2022-09-03T04:39:59;23.60;76.30
51486;DHT22;37565;51.352;6.412;2022-09-03T04:42:27;23.60;76.30
51486;DHT22;37565;51.352;6.412;2022-09-03T04:44:56;23.60;76.60
51486;DHT22;37565;51.352;6.412;2022-09-03T04:47:24;23.60;76.50
51486;DHT22;37565;51.352;6.412;2022-09-03T04:49:53;23.60;77.30
51486;DHT22;37565;51.352;6.412;2022-09-03T04:52:21;23.60;76.00
51486;DHT22;37565;51.352;6.412;2022-09-03T04:54:50;23.60;77.50
51486;DHT22;37565;51.352;6.412;2022-09-03T04:57:18;23.60;76.30
51486;DHT22;37565;51.352;6.412;2022-09-03T04:59:46;23.60;76.70
51486;DHT22;37565;51.352;6.412;2022-09-03T05:02:15;23.60;77.50
51486;DHT22;37565;51.352;6.412;2022-09-03T05:04:47;23.60;77.00
51486;DHT22;37565;51.352;6.412;2022-09-03T05:07:15;23.50;76.40
51486;DHT22;37565;51.352;6.412;2022-09-03T05:09:46;23.60;78.40
51486;DHT22;37565;51.352;6.412;2022-09-03T05:12:14;23.50;78.20
51486;DHT22;37565;51.352;6.412;2022-09-03T05:14:43;23.50;77.80
51486;DHT22;37565;51.352;6.412;2022-09-03T05:17:11;23.50;78.50
51486;DHT22;37565;51.352;6.412;2022-09-03T05:19:40;23.50;78.40
51486;DHT22;37565;51.352;6.412;2022-09-03T05:22:08;23.50;78.90
51486;DHT22;37565;51.352;6.412;2022-09-03T05:24:36;23.50;78.20
51486;DHT22;37565;51.352;6.412;2022-09-03T05:27:04;23.50;76.50
51486;DHT22;37565;51.352;6.412;2022-09-03T05:29:32;23.50;78.60
51486;DHT22;37565;51.352;6.412;2022-09-03T05:32:00;23.50;77.20
51486;DHT22;37565;51.352;6.412;2022-09-03T05:34:29;23.50;77.60
51486;DHT22;37565;51.352;6.412;2022-09-03T05:36:59;23.50;78.50
51486;DHT22;37565;51.352;6.412;2022-09-03T05:39:27;23.50;78.50
51486;DHT22;37565;51.352;6.412;2022-09-03T05:41:55;23.50;78.40
51486;DHT22;37565;51.352;6.412;2022-09-03T05:44:23;23.50;79.70
51486;DHT22;37565;51.352;6.412;2022-09-03T05:46:51;23.50;78.50
51486;DHT22;37565;51.352;6.412;2022-09-03T05:49:19;23.50;79.40
51486;DHT22;37565;51.352;6.412;2022-09-03T05:51:47;23.50;79.40
51486;DHT22;37565;51.352;6.412;2022-09-03T05:54:16;23.50;77.90
51486;DHT22;37565;51.352;6.412;2022-09-03T05:56:44;23.50;78.90
51486;DHT22;37565;51.352;6.412;2022-09-03T05:59:12;23.50;79.20
51486;DHT22;37565;51.352;6.412;2022-09-03T06:01:42;23.50;79.40
51486;DHT22;37565;51.352;6.412;2022-09-03T06:04:18;23.50;79.70
51486;DHT22;37565;51.352;6.412;2022-09-03T06:06:47;23.50;79.70
51486;DHT22;37565;51.352;6.412;2022-09-03T06:09:18;23.50;80.10
51486;DHT22;37565;51.352;6.412;2022-09-03T06:11:49;23.50;79.30
51486;DHT22;37565;51.352;6.412;2022-09-03T06:14:18;23.50;80.20
51486;DHT22;37565;51.352;6.412;2022-09-03T06:16:48;23.40;79.70
51486;DHT22;37565;51.352;6.412;2022-09-03T06:19:18;23.40;80.00
51486;DHT22;37565;51.352;6.412;2022-09-03T06:21:46;23.40;80.30
51486;DHT22;37565;51.352;6.412;2022-09-03T06:24:17;23.40;79.70
51486;DHT22;37565;51.352;6.412;2022-09-03T06:26:46;23.40;79.90
51486;DHT22;37565;51.352;6.412;2022-09-03T06:29:14;23.40;80.40
51486;DHT22;37565;51.352;6.412;2022-09-03T06:31:42;23.40;80.20
51486;DHT22;37565;51.352;6.412;2022-09-03T06:34:10;23.40;80.20
51486;DHT22;37565;51.352;6.412;2022-09-03T06:36:38;23.40;80.80
51486;DHT22;37565;51.352;6.412;2022-09-03T06:39:07;23.40;80.80
51486;DHT22;37565;51.352;6.412;2022-09-03T06:41:37;23.40;80.70
51486;DHT22;37565;51.352;6.412;2022-09-03T06:44:07;23.40;80.60
51486;DHT22;37565;51.352;6.412;2022-09-03T06:46:38;23.40;81.20
51486;DHT22;37565;51.352;6.412;2022-09-03T06:49:08;23.50;81.00
51486;DHT22;37565;51.352;6.412;2022-09-03T06:51:37;23.50;81.30
51486;DHT22;37565;51.352;6.412;2022-09-03T06:54:07;23.50;81.10
51486;DHT22;37565;51.352;6.412;2022-09-03T06:56:37;23.50;81.00
51486;DHT22;37565;51.352;6.412;2022-09-03T06:59:08;23.50;81.30
51486;DHT22;37565;51.352;6.412;2022-09-03T07:01:37;23.60;81.90
51486;DHT22;37565;51.352;6.412;2022-09-03T07:04:11;23.60;81.20
51486;DHT22;37565;51.352;6.412;2022-09-03T07:06:40;23.60;81.50
51486;DHT22;37565;51.352;6.412;2022-09-03T07:09:10;23.60;81.50
51486;DHT22;37565;51.352;6.412;2022-09-03T07:11:40;23.60;81.60
51486;DHT22;37565;51.352;6.412;2022-09-03T07:14:14;23.60;81.70
51486;DHT22;37565;51.352;6.412;2022-09-03T07:16:42;23.50;81.50
51486;DHT22;37565;51.352;6.412;2022-09-03T07:19:11;23.50;81.40
51486;DHT22;37565;51.352;6.412;2022-09-03T07:21:41;23.50;81.90
51486;DHT22;37565;51.352;6.412;2022-09-03T07:24:15;23.50;81.80
51486;DHT22;37565;51.352;6.412;2022-09-03T07:26:45;23.50;82.00
51486;DHT22;37565;51.352;6.412;2022-09-03T07:29:14;23.50;82.20
51486;DHT22;37565;51.352;6.412;2022-09-03T07:31:46;23.50;82.20
51486;DHT22;37565;51.352;6.412;2022-09-03T07:34:17;23.50;82.10
51486;DHT22;37565;51.352;6.412;2022-09-03T07:36:48;23.50;82.30
51486;DHT22;37565;51.352;6.412;2022-09-03T07:39:17;23.40;82.20
51486;DHT22;37565;51.352;6.412;2022-09-03T07:41:47;23.40;82.30
51486;DHT22;37565;51.352;6.412;2022-09-03T07:44:17;23.40;82.30
51486;DHT22;37565;51.352;6.412;2022-09-03T07:46:46;23.50;82.00
51486;DHT22;37565;51.352;6.412;2022-09-03T07:49:17;23.50;82.30
51486;DHT22;37565;51.352;6.412;2022-09-03T07:51:46;23.60;81.80
51486;DHT22;37565;51.352;6.412;2022-09-03T07:54:16;23.70;81.40
51486;DHT22;37565;51.352;6.412;2022-09-03T07:56:46;23.80;81.10
51486;DHT22;37565;51.352;6.412;2022-09-03T07:59:14;23.80;80.40
51486;DHT22;37565;51.352;6.412;2022-09-03T08:01:42;23.80;81.50
51486;DHT22;37565;51.352;6.412;2022-09-03T08:04:10;23.70;81.80
51486;DHT22;37565;51.352;6.412;2022-09-03T08:06:39;23.70;82.20
51486;DHT22;37565;51.352;6.412;2022-09-03T08:09:10;23.70;82.40
51486;DHT22;37565;51.352;6.412;2022-09-03T08:11:41;23.60;82.60
51486;DHT22;37565;51.352;6.412;2022-09-03T08:14:12;23.60;82.40
51486;DHT22;37565;51.352;6.412;2022-09-03T08:16:44;23.60;82.80
51486;DHT22;37565;51.352;6.412;2022-09-03T08:19:13;23.60;82.70
51486;DHT22;37565;51.352;6.412;2022-09-03T08:21:41;23.60;82.40
51486;DHT22;37565;51.352;6.412;2022-09-03T08:24:10;23.60;82.50
51486;DHT22;37565;51.352;6.412;2022-09-03T08:26:40;23.60;82.70
51486;DHT22;37565;51.352;6.412;2022-09-03T08:29:14;23.60;82.80
51486;DHT22;37565;51.352;6.412;2022-09-03T08:31:42;23.60;82.80
51486;DHT22;37565;51.352;6.412;2022-09-03T08:34:11;23.60;82.60
51486;DHT22;37565;51.352;6.412;2022-09-03T08:36:40;23.60;82.70
51486;DHT22;37565;51.352;6.412;2022-09-03T08:39:09;23.60;82.60
51486;DHT22;37565;51.352;6.412;2022-09-03T08:41:54;23.60;82.90
51486;DHT22;37565;51.352;6.412;2022-09-03T08:44:30;23.60;82.60
51486;DHT22;37565;51.352;6.412;2022-09-03T08:47:05;23.60;82.80
51486;DHT22;37565;51.352;6.412;2022-09-03T08:49:42;23.60;83.00
51486;DHT22;37565;51.352;6.412;2022-09-03T08:52:21;23.60;83.10
51486;DHT22;37565;51.352;6.412;2022-09-03T08:54:57;23.60;83.10
51486;DHT22;37565;51.352;6.412;2022-09-03T08:57:27;23.60;83.10
51486;DHT22;37565;51.352;6.412;2022-09-03T09:00:00;23.60;83.30
51486;DHT22;37565;51.352;6.412;2022-09-03T09:02:37;23.60;83.10
51486;DHT22;37565;51.352;6.412;2022-09-03T09:05:11;23.60;83.10
51486;DHT22;37565;51.352;6.412;2022-09-03T09:07:45;23.60;83.10
51486;DHT22;37565;51.352;6.412;2022-09-03T09:10:19;23.60;82.90
51486;DHT22;37565;51.352;6.412;2022-09-03T09:13:00;23.60;83.10
51486;DHT22;37565;51.352;6.412;2022-09-03T09:15:38;23.70;83.10
51486;DHT22;37565;51.352;6.412;2022-09-03T09:18:13;23.60;82.80
51486;DHT22;37565;51.352;6.412;2022-09-03T09:20:48;23.70;83.20
51486;DHT22;37565;51.352;6.412;2022-09-03T09:23:23;23.70;83.20
51486;DHT22;37565;51.352;6.412;2022-09-03T09:25:53;23.60;83.00
51486;DHT22;37565;51.352;6.412;2022-09-03T09:28:24;23.70;83.20
51486;DHT22;37565;51.352;6.412;2022-09-03T09:30:57;23.70;83.30
51486;DHT22;37565;51.352;6.412;2022-09-03T09:33:30;23.70;83.10
51486;DHT22;37565;51.352;6.412;2022-09-03T09:36:02;23.70;83.30
51486;DHT22;37565;51.352;6.412;2022-09-03T09:38:36;23.70;83.00
51486;DHT22;37565;51.352;6.412;2022-09-03T09:41:09;23.70;82.10
51486;DHT22;37565;51.352;6.412;2022-09-03T09:43:37;23.60;81.00
51486;DHT22;37565;51.352;6.412;2022-09-03T09:46:11;23.70;79.80
51486;DHT22;37565;51.352;6.412;2022-09-03T09:48:47;23.70;78.90
51486;DHT22;37565;51.352;6.412;2022-09-03T09:51:19;23.70;77.30
51486;DHT22;37565;51.352;6.412;2022-09-03T09:53:58;23.60;76.80
51486;DHT22;37565;51.352;6.412;2022-09-03T09:56:27;23.70;75.80
51486;DHT22;37565;51.352;6.412;2022-09-03T09:59:02;23.70;75.30
51486;DHT22;37565;51.352;6.412;2022-09-03T10:01:31;23.70;75.50
51486;DHT22;37565;51.352;6.412;2022-09-03T10:04:07;23.70;75.40
51486;DHT22;37565;51.352;6.412;2022-09-03T10:06:36;23.70;75.50
51486;DHT22;37565;51.352;6.412;2022-09-03T10:09:25;23.70;75.50
51486;DHT22;37565;51.352;6.412;2022-09-03T10:12:06;23.70;73.90
51486;DHT22;37565;51.352;6.412;2022-09-03T10:14:39;23.70;74.00
51486;DHT22;37565;51.352;6.412;2022-09-03T10:17:15;23.70;74.80
51486;DHT22;37565;51.352;6.412;2022-09-03T10:19:56;23.70;75.00
51486;DHT22;37565;51.352;6.412;2022-09-03T10:22:42;23.70;74.40
51486;DHT22;37565;51.352;6.412;2022-09-03T10:25:26;23.70;74.00
51486;DHT22;37565;51.352;6.412;2022-09-03T10:27:56;23.70;74.10
51486;DHT22;37565;51.352;6.412;2022-09-03T10:30:28;23.80;74.50
51486;DHT22;37565;51.352;6.412;2022-09-03T10:33:15;23.80;74.30
51486;DHT22;37565;51.352;6.412;2022-09-03T10:35:51;23.80;74.20
51486;DHT22;37565;51.352;6.412;2022-09-03T10:38:26;23.80;74.20
51486;DHT22;37565;51.352;6.412;2022-09-03T10:41:04;23.80;74.00
51486;DHT22;37565;51.352;6.412;2022-09-03T10:43:53;23.80;73.80
51486;DHT22;37565;51.352;6.412;2022-09-03T10:46:26;23.80;73.70
51486;DHT22;37565;51.352;6.412;2022-09-03T10:49:13;23.80;74.10
51486;DHT22;37565;51.352;6.412;2022-09-03T10:51:51;23.90;74.30
51486;DHT22;37565;51.352;6.412;2022-09-03T10:54:33;23.80;74.00
51486;DHT22;37565;51.352;6.412;2022-09-03T10:57:07;23.80;74.20
51486;DHT22;37565;51.352;6.412;2022-09-03T10:59:50;23.90;74.20
51486;DHT22;37565;51.352;6.412;2022-09-03T11:02:45;23.90;74.20
51486;DHT22;37565;51.352;6.412;2022-09-03T11:05:22;23.90;74.50
51486;DHT22;37565;51.352;6.412;2022-09-03T11:08:02;23.90;74.80
51486;DHT22;37565;51.352;6.412;2022-09-03T11:10:34;23.90;74.50
51486;DHT22;37565;51.352;6.412;2022-09-03T11:13:11;23.90;74.60
51486;DHT22;37565;51.352;6.412;2022-09-03T11:15:46;24.00;74.70
51486;DHT22;37565;51.352;6.412;2022-09-03T11:18:19;23.90;74.70
51486;DHT22;37565;51.352;6.412;2022-09-03T11:20:52;23.90;74.70
51486;DHT22;37565;51.352;6.412;2022-09-03T11:23:23;24.00;74.70
51486;DHT22;37565;51.352;6.412;2022-09-03T11:25:56;24.00;74.60
51486;DHT22;37565;51.352;6.412;2022-09-03T11:28:35;24.00;74.80
51486;DHT22;37565;51.352;6.412;2022-09-03T11:31:22;23.90;74.70
51486;DHT22;37565;51.352;6.412;2022-09-03T11:33:57;24.00;74.80
51486;DHT22;37565;51.352;6.412;2022-09-03T11:36:31;24.00;74.80
51486;DHT22;37565;51.352;6.412;2022-09-03T11:39:00;24.00;74.70
51486;DHT22;37565;51.352;6.412;2022-09-03T11:41:33;24.00;74.90
51486;DHT22;37565;51.352;6.412;2022-09-03T11:44:15;24.10;75.10
51486;DHT22;37565;51.352;6.412;2022-09-03T11:46:53;24.00;75.20
51486;DHT22;37565;51.352;6.412;2022-09-03T11:49:28;24.00;75.40
51486;DHT22;37565;51.352;6.412;2022-09-03T11:52:03;24.00;75.50
51486;DHT22;37565;51.352;6.412;2022-09-03T11:54:42;24.00;75.60
51486;DHT22;37565;51.352;6.412;2022-09-03T11:57:13;24.00;75.50
51486;DHT22;37565;51.352;6.412;2022-09-03T11:59:42;24.00;75.30
51486;DHT22;37565;51.352;6.412;2022-09-03T12:02:23;24.00;75.20
51486;DHT22;37565;51.352;6.412;2022-09-03T12:05:10;24.10;75.40
51486;DHT22;37565;51.352;6.412;2022-09-03T12:07:58;24.10;75.50
51486;DHT22;37565;51.352;6.412;2022-09-03T12:10:40;24.00;76.50
51486;DHT22;37565;51.352;6.412;2022-09-03T12:13:20;24.00;76.10
51486;DHT22;37565;51.352;6.412;2022-09-03T12:16:25;24.10;76.10
51486;DHT22;37565;51.352;6.412;2022-09-03T12:19:02;24.10;76.50
51486;DHT22;37565;51.352;6.412;2022-09-03T12:21:37;24.10;76.50
51486;DHT22;37565;51.352;6.412;2022-09-03T12:24:10;24.10;76.60
51486;DHT22;37565;51.352;6.412;2022-09-03T12:26:40;24.10;76.70
51486;DHT22;37565;51.352;6.412;2022-09-03T12:29:21;24.10;76.90
51486;DHT22;37565;51.352;6.412;2022-09-03T12:31:54;24.10;76.90
51486;DHT22;37565;51.352;6.412;2022-09-03T12:34:23;24.10;76.90
51486;DHT22;37565;51.352;6.412;2022-09-03T12:36:53;24.10;77.10
51486;DHT22;37565;51.352;6.412;2022-09-03T12:39:24;24.20;77.30
51486;DHT22;37565;51.352;6.412;2022-09-03T12:42:17;24.20;77.40
51486;DHT22;37565;51.352;6.412;2022-09-03T12:44:46;24.00;77.20
51486;DHT22;37565;51.352;6.412;2022-09-03T12:47:16;24.20;77.50
51486;DHT22;37565;51.352;6.412;2022-09-03T12:50:07;24.20;77.50
51486;DHT22;37565;51.352;6.412;2022-09-03T12:52:39;24.20;77.50
51486;DHT22;37565;51.352;6.412;2022-09-03T12:55:17;24.20;77.60
51486;DHT22;37565;51.352;6.412;2022-09-03T12:57:56;24.20;77.80
51486;DHT22;37565;51.352;6.412;2022-09-03T13:00:29;24.20;77.80
51486;DHT22;37565;51.352;6.412;2022-09-03T13:03:02;24.20;77.80
51486;DHT22;37565;51.352;6.412;2022-09-03T13:05:33;24.20;78.00
51486;DHT22;37565;51.352;6.412;2022-09-03T13:08:04;24.20;78.00
51486;DHT22;37565;51.352;6.412;2022-09-03T13:10:38;24.20;78.00
51486;DHT22;37565;51.352;6.412;2022-09-03T13:13:20;24.20;78.00
51486;DHT22;37565;51.352;6.412;2022-09-03T13:16:01;24.20;78.40
51486;DHT22;37565;51.352;6.412;2022-09-03T13:18:35;24.30;78.40
51486;DHT22;37565;51.352;6.412;2022-09-03T13:21:09;24.20;78.60
51486;DHT22;37565;51.352;6.412;2022-09-03T13:26:44;24.30;79.10
51486;DHT22;37565;51.352;6.412;2022-09-03T13:29:35;24.30;79.10
51486;DHT22;37565;51.352;6.412;2022-09-03T13:32:13;24.30;79.30
51486;DHT22;37565;51.352;6.412;2022-09-03T13:34:48;24.30;79.80
51486;DHT22;37565;51.352;6.412;2022-09-03T13:37:25;24.30;80.70
51486;DHT22;37565;51.352;6.412;2022-09-03T13:39:56;24.30;79.60
51486;DHT22;37565;51.352;6.412;2022-09-03T13:42:34;24.30;80.10
51486;DHT22;37565;51.352;6.412;2022-09-03T13:45:07;24.30;79.60
51486;DHT22;37565;51.352;6.412;2022-09-03T13:47:42;24.40;80.70
51486;DHT22;37565;51.352;6.412;2022-09-03T13:50:38;24.40;81.00
51486;DHT22;37565;51.352;6.412;2022-09-03T13:53:15;24.40;81.30
51486;DHT22;37565;51.352;6.412;2022-09-03T13:55:51;24.40;81.40
51486;DHT22;37565;51.352;6.412;2022-09-03T13:58:26;24.40;81.90
51486;DHT22;37565;51.352;6.412;2022-09-03T14:01:07;24.40;82.80
51486;DHT22;37565;51.352;6.412;2022-09-03T14:03:43;24.40;82.70
51486;DHT22;37565;51.352;6.412;2022-09-03T14:06:23;24.40;82.80
51486;DHT22;37565;51.352;6.412;2022-09-03T14:09:03;24.40;82.70
51486;DHT22;37565;51.352;6.412;2022-09-03T14:11:45;24.40;82.00
51486;DHT22;37565;51.352;6.412;2022-09-03T14:14:27;24.40;83.60
51486;DHT22;37565;51.352;6.412;2022-09-03T14:17:03;24.40;83.40
51486;DHT22;37565;51.352;6.412;2022-09-03T14:19:38;24.50;84.20
51486;DHT22;37565;51.352;6.412;2022-09-03T14:22:12;24.50;83.80
51486;DHT22;37565;51.352;6.412;2022-09-03T14:24:46;24.50;83.90
51486;DHT22;37565;51.352;6.412;2022-09-03T14:27:23;24.50;83.00
51486;DHT22;37565;51.352;6.412;2022-09-03T14:29:57;24.50;84.10
51486;DHT22;37565;51.352;6.412;2022-09-03T14:32:29;24.50;84.10
51486;DHT22;37565;51.352;6.412;2022-09-03T14:35:21;24.60;83.70
51486;DHT22;37565;51.352;6.412;2022-09-03T14:41:05;24.60;84.60
51486;DHT22;37565;51.352;6.412;2022-09-03T14:44:01;24.60;85.10
51486;DHT22;37565;51.352;6.412;2022-09-03T14:46:50;24.60;84.70
51486;DHT22;37565;51.352;6.412;2022-09-03T14:49:32;24.60;84.20
51486;DHT22;37565;51.352;6.412;2022-09-03T14:52:20;24.60;84.40
51486;DHT22;37565;51.352;6.412;2022-09-03T14:54:58;24.60;84.40
51486;DHT22;37565;51.352;6.412;2022-09-03T14:57:44;24.60;84.10
51486;DHT22;37565;51.352;6.412;2022-09-03T15:00:16;24.60;83.90
51486;DHT22;37565;51.352;6.412;2022-09-03T15:03:01;24.60;84.20
51486;DHT22;37565;51.352;6.412;2022-09-03T15:05:51;24.60;82.90
51486;DHT22;37565;51.352;6.412;2022-09-03T15:08:38;24.60;83.90
51486;DHT22;37565;51.352;6.412;2022-09-03T15:11:15;24.70;84.30
51486;DHT22;37565;51.352;6.412;2022-09-03T15:13:48;24.70;84.10
51486;DHT22;37565;51.352;6.412;2022-09-03T15:16:31;24.70;84.80
51486;DHT22;37565;51.352;6.412;2022-09-03T15:19:12;24.70;84.50
51486;DHT22;37565;51.352;6.412;2022-09-03T15:22:01;24.70;84.60
51486;DHT22;37565;51.352;6.412;2022-09-03T15:24:41;24.70;84.10
51486;DHT22;37565;51.352;6.412;2022-09-03T15:27:22;24.70;84.40
51486;DHT22;37565;51.352;6.412;2022-09-03T15:30:04;24.70;84.20
51486;DHT22;37565;51.352;6.412;2022-09-03T15:32:44;24.70;84.10
51486;DHT22;37565;51.352;6.412;2022-09-03T15:35:38;24.70;84.30
51486;DHT22;37565;51.352;6.412;2022-09-03T15:38:18;24.70;84.30
51486;DHT22;37565;51.352;6.412;2022-09-03T15:40:50;24.80;84.60
51486;DHT22;37565;51.352;6.412;2022-09-03T15:43:22;24.80;84.30
51486;DHT22;37565;51.352;6.412;2022-09-03T15:45:55;24.80;84.50
51486;DHT22;37565;51.352;6.412;2022-09-03T15:48:35;24.80;85.50
51486;DHT22;37565;51.352;6.412;2022-09-03T15:51:12;24.80;85.40
51486;DHT22;37565;51.352;6.412;2022-09-03T15:53:48;24.80;84.10
51486;DHT22;37565;51.352;6.412;2022-09-03T15:56:23;24.90;84.20
51486;DHT22;37565;51.352;6.412;2022-09-03T15:58:57;24.90;84.20
51486;DHT22;37565;51.352;6.412;2022-09-03T16:01:36;24.90;84.10
51486;DHT22;37565;51.352;6.412;2022-09-03T16:04:21;24.90;82.00
51486;DHT22;37565;51.352;6.412;2022-09-03T16:06:57;24.90;82.30
51486;DHT22;37565;51.352;6.412;2022-09-03T16:09:38;24.90;81.70
51486;DHT22;37565;51.352;6.412;2022-09-03T16:12:37;24.90;81.50
51486;DHT22;37565;51.352;6.412;2022-09-03T16:15:11;24.90;80.90
51486;DHT22;37565;51.352;6.412;2022-09-03T16:17:51;24.90;80.40
51486;DHT22;37565;51.352;6.412;2022-09-03T16:20:26;24.90;81.80
51486;DHT22;37565;51.352;6.412;2022-09-03T16:23:04;24.90;81.70